createdAt,value
2018-03-31T00:01:58.458Z,100178.27
2018-03-31T00:04:25.973Z,100178.40
2018-03-31T00:06:53.461Z,100178.88
2018-03-31T00:09:20.977Z,100171.70
2018-03-31T00:11:48.485Z,100171.16
2018-03-31T00:14:16.091Z,100179.98
2018-03-31T00:16:43.564Z,100171.16
2018-03-31T00:19:12.640Z,100164.10
2018-03-31T00:21:40.469Z,100170.83
2018-03-31T00:24:07.935Z,100169.48
2018-03-31T00:26:36.194Z,100172.39
2018-03-31T00:29:03.679Z,100161.28
2018-03-31T00:31:31.158Z,100147.88
2018-03-31T00:33:58.652Z,100162.13
2018-03-31T00:36:27.665Z,100154.67
2018-03-31T00:38:55.160Z,100147.77
2018-03-31T00:41:22.680Z,100144.64
2018-03-31T00:43:50.524Z,100137.86
2018-03-31T00:46:18.778Z,100133.96
2018-03-31T00:48:46.352Z,100139.97
2018-03-31T00:51:14.589Z,100139.88
2018-03-31T00:53:42.341Z,100139.39
2018-03-31T00:56:09.844Z,100136.36
2018-03-31T00:58:37.332Z,100135.64
2018-03-31T01:01:05.594Z,100135.37
2018-03-31T01:03:33.889Z,100137.11
2018-03-31T01:06:01.387Z,100130.52
2018-03-31T01:08:28.878Z,100134.31
2018-03-31T01:10:56.421Z,100128.67
2018-03-31T01:13:23.890Z,100132.27
2018-03-31T01:15:51.366Z,100126.75
2018-03-31T01:18:19.848Z,100118.16
2018-03-31T01:20:48.092Z,100110.01
2018-03-31T01:23:15.573Z,100108.20
2018-03-31T01:25:43.072Z,100111.56
2018-03-31T01:28:10.795Z,100116.09
2018-03-31T01:30:39.762Z,100112.49
2018-03-31T01:33:07.253Z,100112.07
2018-03-31T01:35:35.516Z,100133.45
2018-03-31T01:38:03.032Z,100124.92
2018-03-31T01:40:30.524Z,100116.91
2018-03-31T01:42:58.016Z,100108.53
2018-03-31T01:45:27.201Z,100126.61
2018-03-31T01:47:56.269Z,100123.81
2018-03-31T01:50:23.745Z,100119.41
2018-03-31T01:52:51.570Z,100111.66
2018-03-31T01:55:19.659Z,100109.11
2018-03-31T01:57:47.149Z,100098.86
2018-03-31T02:00:14.637Z,100106.85
2018-03-31T02:02:43.663Z,100100.64
2018-03-31T02:05:11.153Z,100115.56
2018-03-31T02:07:38.635Z,100119.55
2018-03-31T02:10:06.468Z,100103.20
2018-03-31T02:12:33.950Z,100104.58
2018-03-31T02:15:01.430Z,100104.09
2018-03-31T02:17:29.716Z,100095.72
2018-03-31T02:19:58.317Z,100110.75
2018-03-31T02:22:25.825Z,100102.34
2018-03-31T02:24:55.100Z,100107.98
2018-03-31T02:27:23.596Z,100096.55
2018-03-31T02:29:52.608Z,100098.59
2018-03-31T02:32:21.093Z,100093.34
2018-03-31T02:34:48.588Z,100085.95
2018-03-31T02:37:16.070Z,100086.12
2018-03-31T02:39:43.556Z,100073.67
2018-03-31T02:42:11.057Z,100072.28
2018-03-31T02:44:38.555Z,100075.47
2018-03-31T02:47:06.922Z,100068.49
2018-03-31T02:52:07.093Z,100070.78
2018-03-31T02:54:34.580Z,100064.74
2018-03-31T02:57:02.091Z,100064.56
2018-03-31T02:59:29.599Z,100057.20
2018-03-31T03:01:58.638Z,100061.11
2018-03-31T03:04:26.213Z,100064.47
2018-03-31T03:06:54.165Z,100054.59
2018-03-31T03:09:21.752Z,100054.20
2018-03-31T03:11:49.555Z,100048.69
2018-03-31T03:14:17.914Z,100041.17
2018-03-31T03:16:45.404Z,100032.99
2018-03-31T03:19:14.324Z,100033.38
2018-03-31T03:21:41.816Z,100034.58
2018-03-31T03:24:09.688Z,100025.22
2018-03-31T03:26:37.164Z,100013.67
2018-03-31T03:29:04.656Z,100020.06
2018-03-31T03:31:32.148Z,100028.82
2018-03-31T03:34:00.458Z,100014.61
2018-03-31T03:36:27.931Z,100024.22
2018-03-31T03:38:57.092Z,100029.61
2018-03-31T03:41:24.605Z,100012.78
2018-03-31T03:43:52.862Z,100034.27
2018-03-31T03:46:21.109Z,100038.44
2018-03-31T03:48:48.873Z,100044.16
2018-03-31T03:51:16.344Z,100033.84
2018-03-31T03:53:44.747Z,100028.20
2018-03-31T03:56:13.237Z,100027.06
2018-03-31T03:58:41.487Z,100031.92
2018-03-31T04:01:08.979Z,100042.39
2018-03-31T04:03:37.546Z,100045.19
2018-03-31T04:06:05.825Z,100046.02
2018-03-31T04:08:34.368Z,100044.27
2018-03-31T04:11:01.856Z,100045.16
2018-03-31T04:13:30.213Z,100048.42
2018-03-31T04:15:57.679Z,100052.29
2018-03-31T04:18:25.800Z,100060.99
2018-03-31T04:20:53.640Z,100059.02
2018-03-31T04:23:21.123Z,100057.48
2018-03-31T04:25:50.096Z,100050.13
2018-03-31T04:28:17.596Z,100059.55
2018-03-31T04:30:45.095Z,100057.78
2018-03-31T04:33:12.578Z,100058.20
2018-03-31T04:35:42.039Z,100060.55
2018-03-31T04:38:10.050Z,100049.84
2018-03-31T04:40:37.655Z,100051.41
2018-03-31T04:43:05.484Z,100052.08
2018-03-31T04:45:32.992Z,100057.53
2018-03-31T04:48:00.512Z,100055.62
2018-03-31T04:50:28.761Z,100054.27
2018-03-31T04:52:57.228Z,100055.20
2018-03-31T04:55:24.888Z,100065.88
2018-03-31T04:57:52.689Z,100070.92
2018-03-31T05:00:20.948Z,100074.14
2018-03-31T05:02:48.885Z,100080.41
2018-03-31T05:05:16.349Z,100083.17
2018-03-31T05:07:44.169Z,100090.44
2018-03-31T05:10:12.493Z,100083.23
2018-03-31T05:12:40.002Z,100084.64
2018-03-31T05:15:08.432Z,100083.95
2018-03-31T05:17:35.900Z,100081.97
2018-03-31T05:20:03.417Z,100097.34
2018-03-31T05:22:31.820Z,100081.91
2018-03-31T05:24:59.721Z,100092.39
2018-03-31T05:27:27.247Z,100087.43
2018-03-31T05:29:54.920Z,100083.95
2018-03-31T05:32:22.400Z,100073.06
2018-03-31T05:34:50.032Z,100085.98
2018-03-31T05:37:17.624Z,100081.42
2018-03-31T05:39:45.100Z,100081.27
2018-03-31T05:42:12.610Z,100094.91
2018-03-31T05:44:41.015Z,100079.97
2018-03-31T05:47:08.488Z,100086.19
2018-03-31T05:49:35.964Z,100088.97
2018-03-31T05:52:04.321Z,100085.23
2018-03-31T05:54:31.797Z,100083.93
2018-03-31T05:57:00.103Z,100079.62
2018-03-31T05:59:27.596Z,100084.53
2018-03-31T06:01:55.880Z,100082.89
2018-03-31T06:04:23.387Z,100086.45
2018-03-31T06:06:53.319Z,100090.98
2018-03-31T06:09:20.812Z,100099.30
2018-03-31T06:11:48.315Z,100100.22
2018-03-31T06:14:15.853Z,100095.52
2018-03-31T06:16:43.504Z,100106.94
2018-03-31T06:19:11.054Z,100092.94
2018-03-31T06:21:38.527Z,100093.14
2018-03-31T06:24:06.096Z,100097.70
2018-03-31T06:26:34.540Z,100096.04
2018-03-31T06:29:02.043Z,100097.80
2018-03-31T06:31:31.767Z,100096.12
2018-03-31T06:33:59.280Z,100093.38
2018-03-31T06:36:26.844Z,100095.88
2018-03-31T06:38:55.096Z,100093.27
2018-03-31T06:41:22.580Z,100093.23
2018-03-31T06:43:50.093Z,100098.00
2018-03-31T06:46:18.351Z,100095.48
2018-03-31T06:48:46.609Z,100103.41
2018-03-31T06:51:14.312Z,100109.25
2018-03-31T06:53:42.590Z,100106.61
2018-03-31T06:56:11.637Z,100110.65
2018-03-31T06:58:39.201Z,100114.44
2018-03-31T07:01:06.675Z,100117.91
2018-03-31T07:03:35.310Z,100115.05
2018-03-31T07:06:03.716Z,100120.50
2018-03-31T07:08:31.194Z,100119.48
2018-03-31T07:10:59.556Z,100113.84
2018-03-31T07:13:27.351Z,100111.10
2018-03-31T07:15:54.828Z,100109.37
2018-03-31T07:18:22.305Z,100106.80
2018-03-31T07:20:50.564Z,100107.98
2018-03-31T07:23:18.057Z,100104.02
2018-03-31T07:25:45.640Z,100104.86
2018-03-31T07:28:13.129Z,100107.70
2018-03-31T07:30:41.178Z,100108.88
2018-03-31T07:33:08.708Z,100101.02
2018-03-31T07:35:36.177Z,100097.05
2018-03-31T07:38:03.673Z,100091.48
2018-03-31T07:40:31.194Z,100096.35
2018-03-31T07:42:58.960Z,100096.14
2018-03-31T07:45:26.458Z,100101.91
2018-03-31T07:47:54.096Z,100102.64
2018-03-31T07:50:21.559Z,100095.53
2018-03-31T07:52:49.558Z,100086.05
2018-03-31T07:55:17.217Z,100097.86
2018-03-31T07:57:44.707Z,100098.92
2018-03-31T08:00:14.101Z,100098.82
2018-03-31T08:02:42.532Z,100096.56
2018-03-31T08:05:10.819Z,100099.38
2018-03-31T08:10:06.700Z,100091.66
2018-03-31T08:12:35.092Z,100089.81
2018-03-31T08:15:03.875Z,100092.92
2018-03-31T08:17:32.197Z,100098.22
2018-03-31T08:19:59.673Z,100096.77
2018-03-31T08:22:27.156Z,100092.58
2018-03-31T08:24:54.686Z,100099.73
2018-03-31T08:27:23.804Z,100095.88
2018-03-31T08:29:51.275Z,100098.12
2018-03-31T08:32:19.617Z,100108.80
2018-03-31T08:34:47.275Z,100101.80
2018-03-31T08:37:14.836Z,100105.03
2018-03-31T08:39:42.309Z,100107.70
2018-03-31T08:42:10.118Z,100106.19
2018-03-31T08:44:38.876Z,100103.53
2018-03-31T08:47:06.389Z,100097.60
2018-03-31T08:49:35.092Z,100096.11
2018-03-31T08:52:02.573Z,100091.55
2018-03-31T08:54:30.085Z,100087.85
2018-03-31T08:56:58.389Z,100089.73
2018-03-31T08:59:25.878Z,100088.98
2018-03-31T09:01:54.221Z,100098.14
2018-03-31T09:04:21.714Z,100097.68
2018-03-31T09:06:49.306Z,100098.14
2018-03-31T09:09:18.481Z,100097.96
2018-03-31T09:11:46.008Z,100098.14
2018-03-31T09:14:17.505Z,100106.03
2018-03-31T09:16:44.992Z,100105.56
2018-03-31T09:19:12.640Z,100100.77
2018-03-31T09:21:41.927Z,100103.62
2018-03-31T09:24:09.756Z,100110.07
2018-03-31T09:26:37.912Z,100100.98
2018-03-31T09:29:05.387Z,100106.94
2018-03-31T09:31:32.899Z,100119.39
2018-03-31T09:34:01.137Z,100115.45
2018-03-31T09:36:28.762Z,100112.42
2018-03-31T09:38:56.764Z,100122.83
2018-03-31T09:41:24.813Z,100118.35
2018-03-31T09:43:52.660Z,100116.29
2018-03-31T09:46:21.704Z,100114.93
2018-03-31T09:48:49.200Z,100110.20
2018-03-31T09:51:17.464Z,100112.63
2018-03-31T09:53:44.979Z,100116.23
2018-03-31T09:56:12.468Z,100116.94
2018-03-31T09:58:39.991Z,100113.16
2018-03-31T10:01:07.780Z,100111.69
2018-03-31T10:03:35.276Z,100106.88
2018-03-31T10:06:02.833Z,100113.11
2018-03-31T10:08:30.571Z,100106.13
2018-03-31T10:10:58.055Z,100109.84
2018-03-31T10:13:25.544Z,100104.72
2018-03-31T10:15:54.131Z,100105.63
2018-03-31T10:18:21.629Z,100102.23
2018-03-31T10:20:49.124Z,100100.55
2018-03-31T10:23:17.399Z,100095.73
2018-03-31T10:25:45.870Z,100098.37
2018-03-31T10:28:14.571Z,100093.08
2018-03-31T10:30:42.913Z,100094.03
2018-03-31T10:33:10.411Z,100094.36
2018-03-31T10:35:38.755Z,100091.69
2018-03-31T10:38:06.237Z,100092.25
2018-03-31T10:40:33.779Z,100087.44
2018-03-31T10:43:01.266Z,100083.03
2018-03-31T10:45:28.775Z,100080.84
2018-03-31T10:47:56.356Z,100076.15
2018-03-31T10:50:24.268Z,100071.19
2018-03-31T10:52:52.553Z,100075.17
2018-03-31T10:55:20.805Z,100068.42
2018-03-31T10:57:48.629Z,100065.80
2018-03-31T11:00:16.544Z,100063.72
2018-03-31T11:02:44.021Z,100066.02
2018-03-31T11:05:13.004Z,100061.55
2018-03-31T11:07:41.337Z,100060.13
2018-03-31T11:10:09.679Z,100064.61
2018-03-31T11:12:38.000Z,100057.80
2018-03-31T11:15:06.021Z,100054.12
2018-03-31T11:17:34.720Z,100054.79
2018-03-31T11:20:02.228Z,100047.95
2018-03-31T11:22:29.708Z,100050.94
2018-03-31T11:24:57.189Z,100052.19
2018-03-31T11:27:25.509Z,100046.64
2018-03-31T11:29:52.988Z,100044.56
2018-03-31T11:32:20.576Z,100051.72
2018-03-31T11:34:48.040Z,100052.56
2018-03-31T11:37:16.279Z,100045.62
2018-03-31T11:39:43.815Z,100053.19
2018-03-31T11:42:12.184Z,100051.36
2018-03-31T11:44:39.704Z,100050.37
2018-03-31T11:47:07.309Z,100050.50
2018-03-31T11:49:34.978Z,100048.25
2018-03-31T11:52:02.478Z,100052.56
2018-03-31T11:54:29.960Z,100045.82
2018-03-31T11:56:58.264Z,100050.41
2018-03-31T11:59:25.754Z,100052.64
2018-03-31T12:01:53.844Z,100056.91
2018-03-31T12:04:21.688Z,100048.25
2018-03-31T12:06:50.108Z,100050.47
2018-03-31T12:09:17.610Z,100045.64
2018-03-31T12:11:45.128Z,100048.22
2018-03-31T12:14:12.628Z,100046.36
2018-03-31T12:16:41.043Z,100048.52
2018-03-31T12:19:08.544Z,100051.45
2018-03-31T12:21:37.435Z,100055.02
2018-03-31T12:24:05.705Z,100053.98
2018-03-31T12:26:34.057Z,100057.19
2018-03-31T12:29:01.540Z,100058.41
2018-03-31T12:31:29.828Z,100058.73
2018-03-31T12:33:58.824Z,100058.25
2018-03-31T12:36:26.312Z,100061.00
2018-03-31T12:38:54.174Z,100057.31
2018-03-31T12:41:21.667Z,100062.11
2018-03-31T12:43:49.216Z,100062.07
2018-03-31T12:46:16.971Z,100066.88
2018-03-31T12:48:44.443Z,100054.64
2018-03-31T12:51:11.930Z,100059.36
2018-03-31T12:53:40.281Z,100059.30
2018-03-31T12:56:07.771Z,100055.70
2018-03-31T12:58:35.235Z,100055.42
2018-03-31T13:01:03.493Z,100052.30
2018-03-31T13:03:30.981Z,100054.50
2018-03-31T13:05:59.977Z,100051.56
2018-03-31T13:08:28.215Z,100055.80
2018-03-31T13:10:55.698Z,100047.09
2018-03-31T13:13:23.236Z,100051.48
2018-03-31T13:15:50.758Z,100056.16
2018-03-31T13:18:18.236Z,100051.31
2018-03-31T13:20:45.724Z,100058.07
2018-03-31T13:23:13.260Z,100057.16
2018-03-31T13:25:40.764Z,100051.28
2018-03-31T13:28:09.009Z,100053.66
2018-03-31T13:30:36.536Z,100055.97
2018-03-31T13:33:04.044Z,100050.89
2018-03-31T13:35:31.536Z,100058.56
2018-03-31T13:38:00.061Z,100054.05
2018-03-31T13:40:27.543Z,100055.69
2018-03-31T13:42:55.020Z,100060.59
2018-03-31T13:45:23.435Z,100057.14
2018-03-31T13:47:51.008Z,100054.02
2018-03-31T13:50:18.495Z,100054.46
2018-03-31T13:52:45.989Z,100056.20
2018-03-31T13:55:14.261Z,100056.09
2018-03-31T13:57:42.520Z,100051.70
2018-03-31T14:00:10.040Z,100053.13
2018-03-31T14:02:37.634Z,100051.48
2018-03-31T14:05:05.104Z,100049.88
2018-03-31T14:07:33.440Z,100057.05
2018-03-31T14:10:01.609Z,100054.20
2018-03-31T14:12:29.043Z,100055.38
2018-03-31T14:14:56.524Z,100057.31
2018-03-31T14:17:24.056Z,100054.63
2018-03-31T14:19:52.303Z,100056.98
2018-03-31T14:22:19.796Z,100053.86
2018-03-31T14:24:47.492Z,100060.25
2018-03-31T14:27:14.978Z,100062.64
2018-03-31T14:29:42.460Z,100058.65
2018-03-31T14:32:11.008Z,100058.70
2018-03-31T14:34:38.544Z,100067.67
2018-03-31T14:37:06.246Z,100071.52
2018-03-31T14:39:33.723Z,100075.02
2018-03-31T14:42:01.224Z,100074.17
2018-03-31T14:44:28.800Z,100070.37
2018-03-31T14:46:56.393Z,100075.64
2018-03-31T14:49:23.869Z,100078.43
2018-03-31T14:51:52.940Z,100078.86
2018-03-31T14:54:20.452Z,100077.91
2018-03-31T14:56:47.964Z,100077.14
2018-03-31T14:59:15.470Z,100085.23
2018-03-31T15:01:43.164Z,100085.63
2018-03-31T15:04:11.440Z,100085.13
2018-03-31T15:06:38.979Z,100081.27
2018-03-31T15:09:06.648Z,100092.35
2018-03-31T15:11:34.132Z,100093.58
2018-03-31T15:14:01.674Z,100094.56
2018-03-31T15:16:29.959Z,100096.80
2018-03-31T15:18:57.440Z,100098.27
2018-03-31T15:21:24.936Z,100092.66
2018-03-31T15:23:53.234Z,100092.75
2018-03-31T15:26:20.778Z,100097.79
2018-03-31T15:28:49.050Z,100093.11
2018-03-31T15:31:17.297Z,100098.71
2018-03-31T15:33:44.943Z,100098.43
2018-03-31T15:36:15.209Z,100095.58
2018-03-31T15:38:43.844Z,100099.05
2018-03-31T15:41:11.329Z,100098.73
2018-03-31T15:43:38.814Z,100097.18
2018-03-31T15:46:07.080Z,100094.07
2018-03-31T15:48:35.342Z,100091.52
2018-03-31T15:51:02.833Z,100092.94
2018-03-31T15:53:31.308Z,100096.18
2018-03-31T15:55:59.659Z,100101.13
2018-03-31T15:58:27.330Z,100097.92
2018-03-31T16:00:54.820Z,100099.31
2018-03-31T16:03:23.780Z,100106.75
2018-03-31T16:05:51.308Z,100102.61
2018-03-31T16:08:19.014Z,100099.38
2018-03-31T16:10:46.521Z,100098.57
2018-03-31T16:13:14.309Z,100097.54
2018-03-31T16:15:42.689Z,100097.92
2018-03-31T16:18:10.176Z,100102.23
2018-03-31T16:20:37.669Z,100101.81
2018-03-31T16:23:05.140Z,100105.43
2018-03-31T16:25:33.020Z,100105.04
2018-03-31T16:28:00.535Z,100112.13
2018-03-31T16:30:29.490Z,100100.15
2018-03-31T16:32:57.335Z,100102.28
2018-03-31T16:35:24.921Z,100098.92
2018-03-31T16:37:52.409Z,100104.28
2018-03-31T16:40:20.125Z,100104.64
2018-03-31T16:42:47.604Z,100102.28
2018-03-31T16:45:15.123Z,100098.11
2018-03-31T16:47:42.702Z,100105.65
2018-03-31T16:50:10.900Z,100104.64
2018-03-31T16:52:38.404Z,100109.19
2018-03-31T16:55:07.789Z,100110.52
2018-03-31T16:57:35.263Z,100113.78
2018-03-31T17:00:03.557Z,100113.90
2018-03-31T17:02:31.160Z,100110.07
2018-03-31T17:04:59.527Z,100115.05
2018-03-31T17:07:27.088Z,100113.55
2018-03-31T17:09:55.082Z,100119.87
2018-03-31T17:12:22.561Z,100118.31
2018-03-31T17:14:51.273Z,100117.75
2018-03-31T17:17:18.813Z,100120.11
2018-03-31T17:19:47.081Z,100120.03
2018-03-31T17:22:14.576Z,100119.92
2018-03-31T17:24:42.664Z,100126.07
2018-03-31T17:27:10.736Z,100129.91
2018-03-31T17:29:38.643Z,100132.53
2018-03-31T17:32:07.068Z,100136.43
2018-03-31T17:34:35.050Z,100133.44
2018-03-31T17:37:02.632Z,100140.99
2018-03-31T17:39:30.174Z,100137.27
2018-03-31T17:41:58.487Z,100143.91
2018-03-31T17:44:25.986Z,100145.48
2018-03-31T17:46:54.261Z,100149.91
2018-03-31T17:49:23.381Z,100151.39
2018-03-31T17:51:50.868Z,100152.83
2018-03-31T17:54:18.937Z,100154.62
2018-03-31T17:56:47.225Z,100159.77
2018-03-31T17:59:14.712Z,100158.55
2018-03-31T18:01:43.784Z,100164.72
2018-03-31T18:04:11.268Z,100169.92
2018-03-31T18:06:38.781Z,100166.83
2018-03-31T18:09:06.349Z,100171.15
2018-03-31T18:11:34.624Z,100179.54
2018-03-31T18:14:03.120Z,100181.58
2018-03-31T18:16:31.863Z,100184.41
2018-03-31T18:19:00.655Z,100183.82
2018-03-31T18:21:28.140Z,100177.60
2018-03-31T18:23:57.741Z,100177.88
2018-03-31T18:26:25.272Z,100175.84
2018-03-31T18:28:53.958Z,100185.89
2018-03-31T18:31:21.646Z,100186.91
2018-03-31T18:33:49.330Z,100189.16
2018-03-31T18:36:16.836Z,100187.01
2018-03-31T18:38:45.570Z,100188.55
2018-03-31T18:41:13.087Z,100193.12
2018-03-31T18:43:41.341Z,100190.31
2018-03-31T18:46:09.697Z,100183.78
2018-03-31T18:48:37.970Z,100195.50
2018-03-31T18:51:05.495Z,100177.95
2018-03-31T18:53:32.978Z,100187.75
2018-03-31T18:56:00.485Z,100187.47
2018-03-31T18:58:29.158Z,100185.85
2018-03-31T19:00:56.859Z,100184.13
2018-03-31T19:03:25.121Z,100187.28
2018-03-31T19:05:53.074Z,100186.91
2018-03-31T19:08:20.572Z,100183.39
2018-03-31T19:10:48.090Z,100183.60
2018-03-31T19:13:16.447Z,100183.92
2018-03-31T19:15:43.953Z,100184.23
2018-03-31T19:18:12.220Z,100180.34
2018-03-31T19:20:39.705Z,100179.95
2018-03-31T19:23:07.222Z,100176.97
2018-03-31T19:25:35.731Z,100173.88
2018-03-31T19:28:03.981Z,100174.48
2018-03-31T19:30:37.005Z,100174.23
2018-03-31T19:33:05.467Z,100173.99
2018-03-31T19:35:38.469Z,100169.84
2018-03-31T19:38:07.144Z,100166.13
2018-03-31T19:40:34.940Z,100165.95
2018-03-31T19:43:02.520Z,100168.59
2018-03-31T19:45:30.017Z,100163.08
2018-03-31T19:47:57.493Z,100167.08
2018-03-31T19:50:25.828Z,100171.04
2018-03-31T19:52:53.404Z,100177.29
2018-03-31T19:55:20.880Z,100172.86
2018-03-31T19:57:48.445Z,100171.15
2018-03-31T20:00:15.964Z,100172.66
2018-03-31T20:02:43.857Z,100170.23
2018-03-31T20:05:12.528Z,100171.22
2018-03-31T20:07:40.155Z,100167.57
2018-03-31T20:10:08.152Z,100168.86
2018-03-31T20:12:36.540Z,100168.90
2018-03-31T20:15:04.106Z,100158.75
2018-03-31T20:17:31.941Z,100155.91
2018-03-31T20:19:59.527Z,100150.26
2018-03-31T20:22:27.844Z,100149.03
2018-03-31T20:24:55.351Z,100147.80
2018-03-31T20:27:22.844Z,100141.13
2018-03-31T20:29:50.400Z,100145.59
2018-03-31T20:32:18.813Z,100137.41
2018-03-31T20:34:47.115Z,100141.34
2018-03-31T20:37:15.315Z,100143.34
2018-03-31T20:39:43.656Z,100137.31
2018-03-31T20:42:11.920Z,100135.77
2018-03-31T20:44:40.826Z,100137.69
2018-03-31T20:47:09.152Z,100140.00
2018-03-31T20:49:36.634Z,100145.77
2018-03-31T20:52:05.104Z,100138.87
2018-03-31T20:54:32.615Z,100136.17
2018-03-31T20:57:00.097Z,100139.91
2018-03-31T20:59:27.572Z,100133.88
2018-03-31T21:01:55.148Z,100142.01
2018-03-31T21:04:22.770Z,100145.09
2018-03-31T21:06:52.168Z,100145.52
2018-03-31T21:09:19.694Z,100144.22
2018-03-31T21:11:47.175Z,100142.60
2018-03-31T21:14:14.658Z,100143.13
2018-03-31T21:16:42.158Z,100135.97
2018-03-31T21:19:09.727Z,100137.97
2018-03-31T21:21:37.292Z,100145.83
2018-03-31T21:24:04.799Z,100145.14
2018-03-31T21:26:32.737Z,100144.25
2018-03-31T21:29:00.599Z,100145.66
2018-03-31T21:31:28.845Z,100154.30
2018-03-31T21:33:56.340Z,100150.72
2018-03-31T21:36:25.504Z,100150.44
2018-03-31T21:38:53.000Z,100153.98
2018-03-31T21:41:21.277Z,100148.75
2018-03-31T21:43:49.552Z,100144.50
2018-03-31T21:46:17.833Z,100146.05
2018-03-31T21:48:46.858Z,100150.43
2018-03-31T21:51:14.339Z,100141.97
2018-03-31T21:53:41.839Z,100141.93
2018-03-31T21:56:10.117Z,100138.28
2018-03-31T21:58:37.632Z,100134.09
2018-03-31T22:01:05.319Z,100136.52
2018-03-31T22:03:33.642Z,100135.08
2018-03-31T22:06:01.142Z,100128.63
2018-03-31T22:08:28.642Z,100131.22
2018-03-31T22:10:56.915Z,100129.16
2018-03-31T22:13:33.611Z,100126.31
2018-03-31T22:16:02.152Z,100125.25
2018-03-31T22:18:29.652Z,100129.61
2018-03-31T22:20:57.129Z,100126.09
2018-03-31T22:23:24.645Z,100125.22
2018-03-31T22:25:52.494Z,100128.58
2018-03-31T22:28:19.990Z,100125.44
2018-03-31T22:30:47.474Z,100125.18
2018-03-31T22:33:14.958Z,100130.41
2018-03-31T22:35:42.492Z,100129.64
2018-03-31T22:38:10.589Z,100136.31
2018-03-31T22:40:38.094Z,100130.88
2018-03-31T22:43:06.365Z,100133.84
2018-03-31T22:45:35.532Z,100137.98
2018-03-31T22:48:03.290Z,100141.33
2018-03-31T22:50:30.852Z,100145.86
2018-03-31T22:52:58.341Z,100144.77
2018-03-31T22:55:26.053Z,100152.61
2018-03-31T22:57:53.552Z,100156.14
2018-03-31T23:00:21.041Z,100157.62
2018-03-31T23:02:49.368Z,100152.84
2018-03-31T23:05:17.166Z,100154.32
2018-03-31T23:07:44.651Z,100155.97
2018-03-31T23:10:12.158Z,100157.30
2018-03-31T23:12:39.683Z,100147.86
2018-03-31T23:15:07.422Z,100151.68
2018-03-31T23:17:35.790Z,100151.46
2018-03-31T23:20:03.436Z,100153.65
2018-03-31T23:22:30.930Z,100152.45
2018-03-31T23:25:00.083Z,100151.01
2018-03-31T23:27:27.628Z,100152.10
2018-03-31T23:29:55.131Z,100151.14
2018-03-31T23:32:23.368Z,100150.84
2018-03-31T23:34:51.440Z,100150.94
2018-03-31T23:37:19.510Z,100150.80
2018-03-31T23:39:47.017Z,100145.47
2018-03-31T23:42:15.290Z,100147.15
2018-03-31T23:44:42.772Z,100146.88
2018-03-31T23:47:10.316Z,100147.15
2018-03-31T23:49:38.560Z,100153.75
2018-03-31T23:52:06.060Z,100157.47
2018-03-31T23:54:34.380Z,100159.34
2018-03-31T23:57:01.964Z,100154.20
2018-03-31T23:59:29.594Z,100156.08
